sensor_id;sensor_type;location;lat;lon;timestamp;pressure;altitude;pressure_sealevel;temperature;humidity
23733;BME280;12047;53.450;-2.286;2023-02-19T00:00:48;101744.81;;;15.32;100.00
23733;BME280;12047;53.450;-2.286;2023-02-19T00:06:00;101756.50;;;15.12;100.00
23733;BME280;12047;53.450;-2.286;2023-02-19T00:11:17;101767.28;;;15.39;100.00
23733;BME280;12047;53.450;-2.286;2023-02-19T00:22:33;101807.78;;;15.15;100.00
23733;BME280;12047;53.450;-2.286;2023-02-19T00:34:12;101809.44;;;15.36;100.00
23733;BME280;12047;53.450;-2.286;2023-02-19T00:39:35;101805.97;;;14.96;100.00
23733;BME280;12047;53.450;-2.286;2023-02-19T00:44:42;101787.72;;;14.82;100.00
23733;BME280;12047;53.450;-2.286;2023-02-19T00:50:08;101785.03;;;14.82;100.00
23733;BME280;12047;53.450;-2.286;2023-02-19T01:00:48;101790.66;;;14.98;100.00
23733;BME280;12047;53.450;-2.286;2023-02-19T01:06:24;101816.91;;;14.93;100.00
23733;BME280;12047;53.450;-2.286;2023-02-19T01:17:34;101854.56;;;15.39;100.00
23733;BME280;12047;53.450;-2.286;2023-02-19T01:28:21;101853.44;;;14.13;100.00
23733;BME280;12047;53.450;-2.286;2023-02-19T01:34:08;101847.56;;;14.09;100.00
23733;BME280;12047;53.450;-2.286;2023-02-19T01:50:03;101885.84;;;14.08;100.00
23733;BME280;12047;53.450;-2.286;2023-02-19T01:55:06;101905.78;;;13.93;100.00
23733;BME280;12047;53.450;-2.286;2023-02-19T02:00:17;101921.72;;;13.83;100.00
23733;BME280;12047;53.450;-2.286;2023-02-19T02:05:56;101934.44;;;14.21;100.00
23733;BME280;12047;53.450;-2.286;2023-02-19T02:11:02;101947.25;;;13.86;100.00
23733;BME280;12047;53.450;-2.286;2023-02-19T02:16:23;101961.88;;;13.91;100.00
23733;BME280;12047;53.450;-2.286;2023-02-19T02:32:14;102013.94;;;13.95;100.00
23733;BME280;12047;53.450;-2.286;2023-02-19T02:37:17;102010.78;;;14.02;100.00
23733;BME280;12047;53.450;-2.286;2023-02-19T02:42:37;102013.22;;;13.61;100.00
23733;BME280;12047;53.450;-2.286;2023-02-19T02:48:19;102003.53;;;13.92;100.00
23733;BME280;12047;53.450;-2.286;2023-02-19T02:59:44;102013.72;;;13.87;100.00
23733;BME280;12047;53.450;-2.286;2023-02-19T03:05:17;102034.09;;;13.45;100.00
23733;BME280;12047;53.450;-2.286;2023-02-19T03:10:44;102056.41;;;13.22;100.00
23733;BME280;12047;53.450;-2.286;2023-02-19T03:15:59;102063.16;;;13.37;100.00
23733;BME280;12047;53.450;-2.286;2023-02-19T03:21:28;102070.47;;;13.67;100.00
23733;BME280;12047;53.450;-2.286;2023-02-19T03:38:24;102092.50;;;14.12;100.00
23733;BME280;12047;53.450;-2.286;2023-02-19T03:43:49;102102.63;;;13.86;100.00
23733;BME280;12047;53.450;-2.286;2023-02-19T03:49:06;102124.84;;;13.65;100.00
23733;BME280;12047;53.450;-2.286;2023-02-19T04:06:02;102146.88;;;13.67;100.00
23733;BME280;12047;53.450;-2.286;2023-02-19T04:11:08;102142.75;;;13.62;100.00
23733;BME280;12047;53.450;-2.286;2023-02-19T04:16:16;102149.94;;;13.51;100.00
23733;BME280;12047;53.450;-2.286;2023-02-19T04:21:22;102155.91;;;13.86;100.00
23733;BME280;12047;53.450;-2.286;2023-02-19T04:26:23;102155.72;;;13.78;100.00
23733;BME280;12047;53.450;-2.286;2023-02-19T04:31:28;102157.06;;;13.73;100.00
23733;BME280;12047;53.450;-2.286;2023-02-19T04:42:09;102185.50;;;13.72;100.00
23733;BME280;12047;53.450;-2.286;2023-02-19T04:47:12;102196.63;;;13.66;100.00
23733;BME280;12047;53.450;-2.286;2023-02-19T04:52:20;102199.88;;;14.03;100.00
23733;BME280;12047;53.450;-2.286;2023-02-19T04:57:28;102206.22;;;13.69;100.00
23733;BME280;12047;53.450;-2.286;2023-02-19T05:02:28;102210.47;;;13.60;100.00
23733;BME280;12047;53.450;-2.286;2023-02-19T05:07:29;102218.44;;;13.82;100.00
23733;BME280;12047;53.450;-2.286;2023-02-19T05:12:32;102216.97;;;13.45;100.00
23733;BME280;12047;53.450;-2.286;2023-02-19T05:17:38;102220.00;;;13.29;100.00
23733;BME280;12047;53.450;-2.286;2023-02-19T05:28:20;102229.56;;;13.65;100.00
23733;BME280;12047;53.450;-2.286;2023-02-19T05:33:41;102248.00;;;13.57;100.00
23733;BME280;12047;53.450;-2.286;2023-02-19T05:38:56;102255.84;;;13.92;100.00
23733;BME280;12047;53.450;-2.286;2023-02-19T05:44:17;102235.16;;;13.51;100.00
23733;BME280;12047;53.450;-2.286;2023-02-19T05:49:35;102210.53;;;14.03;100.00
23733;BME280;12047;53.450;-2.286;2023-02-19T05:54:46;102204.28;;;13.59;100.00
23733;BME280;12047;53.450;-2.286;2023-02-19T06:00:03;102218.41;;;13.93;100.00
23733;BME280;12047;53.450;-2.286;2023-02-19T06:05:05;102234.16;;;13.96;100.00
23733;BME280;12047;53.450;-2.286;2023-02-19T06:10:09;102250.03;;;14.09;100.00
23733;BME280;12047;53.450;-2.286;2023-02-19T06:15:27;102261.19;;;13.92;100.00
23733;BME280;12047;53.450;-2.286;2023-02-19T06:26:34;102282.03;;;13.98;100.00
23733;BME280;12047;53.450;-2.286;2023-02-19T06:31:44;102283.97;;;13.74;100.00
23733;BME280;12047;53.450;-2.286;2023-02-19T06:36:48;102272.09;;;14.00;100.00
23733;BME280;12047;53.450;-2.286;2023-02-19T06:41:49;102288.06;;;13.89;100.00
23733;BME280;12047;53.450;-2.286;2023-02-19T06:46:53;102360.03;;;14.11;100.00
23733;BME280;12047;53.450;-2.286;2023-02-19T06:52:18;102287.44;;;13.63;100.00
23733;BME280;12047;53.450;-2.286;2023-02-19T06:57:34;102277.25;;;14.46;100.00
23733;BME280;12047;53.450;-2.286;2023-02-19T07:08:17;102282.63;;;13.57;100.00
23733;BME280;12047;53.450;-2.286;2023-02-19T07:13:18;102254.03;;;13.70;100.00
23733;BME280;12047;53.450;-2.286;2023-02-19T07:18:24;102244.69;;;13.87;100.00
23733;BME280;12047;53.450;-2.286;2023-02-19T07:23:33;102247.03;;;13.58;100.00
23733;BME280;12047;53.450;-2.286;2023-02-19T07:28:43;102255.84;;;13.92;100.00
23733;BME280;12047;53.450;-2.286;2023-02-19T07:33:47;102273.41;;;14.06;100.00
23733;BME280;12047;53.450;-2.286;2023-02-19T07:38:59;102281.16;;;13.64;100.00
23733;BME280;12047;53.450;-2.286;2023-02-19T07:44:02;102308.91;;;14.17;100.00
23733;BME280;12047;53.450;-2.286;2023-02-19T07:49:03;102315.56;;;14.45;100.00
23733;BME280;12047;53.450;-2.286;2023-02-19T07:54:06;102321.50;;;13.71;100.00
23733;BME280;12047;53.450;-2.286;2023-02-19T07:59:07;102337.50;;;13.82;100.00
23733;BME280;12047;53.450;-2.286;2023-02-19T08:04:08;102359.50;;;13.73;100.00
23733;BME280;12047;53.450;-2.286;2023-02-19T08:09:13;102364.66;;;14.43;100.00
23733;BME280;12047;53.450;-2.286;2023-02-19T08:14:17;102312.78;;;13.57;100.00
23733;BME280;12047;53.450;-2.286;2023-02-19T08:19:17;102305.41;;;13.94;100.00
23733;BME280;12047;53.450;-2.286;2023-02-19T08:24:18;102317.97;;;14.37;100.00
23733;BME280;12047;53.450;-2.286;2023-02-19T08:29:39;102333.13;;;14.25;100.00
23733;BME280;12047;53.450;-2.286;2023-02-19T08:34:40;102316.66;;;14.32;100.00
23733;BME280;12047;53.450;-2.286;2023-02-19T08:39:43;102333.38;;;14.56;100.00
23733;BME280;12047;53.450;-2.286;2023-02-19T08:44:46;102334.34;;;15.19;100.00
23733;BME280;12047;53.450;-2.286;2023-02-19T08:49:47;102347.19;;;15.04;100.00
23733;BME280;12047;53.450;-2.286;2023-02-19T08:54:47;102358.66;;;15.37;100.00
23733;BME280;12047;53.450;-2.286;2023-02-19T08:59:50;102368.44;;;14.94;100.00
23733;BME280;12047;53.450;-2.286;2023-02-19T09:04:51;102377.50;;;14.49;100.00
23733;BME280;12047;53.450;-2.286;2023-02-19T09:09:52;102382.69;;;15.16;100.00
23733;BME280;12047;53.450;-2.286;2023-02-19T09:14:52;102385.19;;;15.28;100.00
23733;BME280;12047;53.450;-2.286;2023-02-19T09:19:54;102378.94;;;15.39;100.00
23733;BME280;12047;53.450;-2.286;2023-02-19T09:24:55;102385.50;;;15.67;100.00
23733;BME280;12047;53.450;-2.286;2023-02-19T09:29:58;102391.47;;;15.07;100.00
23733;BME280;12047;53.450;-2.286;2023-02-19T09:34:59;102403.91;;;14.63;100.00
23733;BME280;12047;53.450;-2.286;2023-02-19T09:39:59;102401.25;;;15.49;100.00
23733;BME280;12047;53.450;-2.286;2023-02-19T09:45:14;102394.19;;;15.27;100.00
23733;BME280;12047;53.450;-2.286;2023-02-19T09:50:20;102395.75;;;15.51;100.00
23733;BME280;12047;53.450;-2.286;2023-02-19T10:01:18;102395.53;;;15.75;100.00
23733;BME280;12047;53.450;-2.286;2023-02-19T10:06:22;102383.50;;;15.48;100.00
23733;BME280;12047;53.450;-2.286;2023-02-19T10:11:24;102397.44;;;15.31;100.00
23733;BME280;12047;53.450;-2.286;2023-02-19T10:16:31;102396.25;;;15.77;100.00
23733;BME280;12047;53.450;-2.286;2023-02-19T10:21:36;102390.13;;;16.16;100.00
23733;BME280;12047;53.450;-2.286;2023-02-19T10:26:47;102395.28;;;15.78;100.00
23733;BME280;12047;53.450;-2.286;2023-02-19T10:32:18;102400.31;;;16.22;100.00
23733;BME280;12047;53.450;-2.286;2023-02-19T10:37:23;102403.19;;;15.47;100.00
23733;BME280;12047;53.450;-2.286;2023-02-19T10:42:44;102408.59;;;16.19;100.00
23733;BME280;12047;53.450;-2.286;2023-02-19T10:59:52;102409.91;;;16.25;100.00
23733;BME280;12047;53.450;-2.286;2023-02-19T11:10:20;102422.25;;;16.87;100.00
23733;BME280;12047;53.450;-2.286;2023-02-19T11:15:34;102410.94;;;16.83;100.00
23733;BME280;12047;53.450;-2.286;2023-02-19T11:20:35;102418.59;;;16.88;100.00
23733;BME280;12047;53.450;-2.286;2023-02-19T11:25:44;102421.31;;;16.57;100.00
23733;BME280;12047;53.450;-2.286;2023-02-19T11:49:11;102385.69;;;16.66;100.00
23733;BME280;12047;53.450;-2.286;2023-02-19T11:54:50;102380.16;;;17.27;100.00
23733;BME280;12047;53.450;-2.286;2023-02-19T12:06:55;102368.69;;;17.74;100.00
23733;BME280;12047;53.450;-2.286;2023-02-19T12:41:48;102362.63;;;17.62;100.00
23733;BME280;12047;53.450;-2.286;2023-02-19T13:10:55;102334.88;;;18.00;100.00
23733;BME280;12047;53.450;-2.286;2023-02-19T13:39:18;102251.66;;;17.35;100.00
23733;BME280;12047;53.450;-2.286;2023-02-19T13:50:04;102264.34;;;17.33;100.00
23733;BME280;12047;53.450;-2.286;2023-02-19T13:55:48;102247.09;;;17.65;100.00
23733;BME280;12047;53.450;-2.286;2023-02-19T14:12:42;102237.78;;;18.42;100.00
23733;BME280;12047;53.450;-2.286;2023-02-19T14:17:55;102216.56;;;18.66;100.00
23733;BME280;12047;53.450;-2.286;2023-02-19T14:23:25;102204.44;;;18.62;100.00
23733;BME280;12047;53.450;-2.286;2023-02-19T14:28:36;102217.28;;;18.05;100.00
23733;BME280;12047;53.450;-2.286;2023-02-19T14:33:51;102201.31;;;18.04;100.00
23733;BME280;12047;53.450;-2.286;2023-02-19T14:38:58;102201.19;;;18.23;100.00
23733;BME280;12047;53.450;-2.286;2023-02-19T14:50:29;102164.44;;;18.59;100.00
23733;BME280;12047;53.450;-2.286;2023-02-19T14:55:36;102171.50;;;18.07;100.00
23733;BME280;12047;53.450;-2.286;2023-02-19T15:00:48;102167.00;;;18.60;99.93
23733;BME280;12047;53.450;-2.286;2023-02-19T15:06:02;102164.00;;;18.46;100.00
23733;BME280;12047;53.450;-2.286;2023-02-19T15:11:09;102175.34;;;18.04;100.00
23733;BME280;12047;53.450;-2.286;2023-02-19T15:16:37;102159.72;;;18.17;100.00
23733;BME280;12047;53.450;-2.286;2023-02-19T15:21:44;102156.94;;;18.45;98.57
23733;BME280;12047;53.450;-2.286;2023-02-19T15:26:50;102141.16;;;18.77;97.92
23733;BME280;12047;53.450;-2.286;2023-02-19T15:31:58;102134.09;;;18.41;97.48
23733;BME280;12047;53.450;-2.286;2023-02-19T15:37:11;102143.38;;;17.93;98.27
23733;BME280;12047;53.450;-2.286;2023-02-19T15:42:33;102135.16;;;17.40;100.00
23733;BME280;12047;53.450;-2.286;2023-02-19T15:53:08;102109.50;;;17.92;100.00
23733;BME280;12047;53.450;-2.286;2023-02-19T15:58:23;102107.06;;;17.81;100.00
23733;BME280;12047;53.450;-2.286;2023-02-19T16:03:27;102107.28;;;18.23;100.00
23733;BME280;12047;53.450;-2.286;2023-02-19T16:08:31;102091.88;;;17.72;100.00
23733;BME280;12047;53.450;-2.286;2023-02-19T16:13:33;102112.22;;;17.82;100.00
23733;BME280;12047;53.450;-2.286;2023-02-19T16:18:35;102093.28;;;17.39;100.00
23733;BME280;12047;53.450;-2.286;2023-02-19T16:24:24;102097.69;;;17.03;100.00
23733;BME280;12047;53.450;-2.286;2023-02-19T16:29:39;102087.94;;;17.84;100.00
23733;BME280;12047;53.450;-2.286;2023-02-19T16:35:41;102088.28;;;17.53;100.00
23733;BME280;12047;53.450;-2.286;2023-02-19T16:41:05;102064.34;;;17.70;100.00
23733;BME280;12047;53.450;-2.286;2023-02-19T16:46:25;102066.25;;;17.32;100.00
23733;BME280;12047;53.450;-2.286;2023-02-19T16:51:28;102061.63;;;17.24;100.00
23733;BME280;12047;53.450;-2.286;2023-02-19T16:57:13;102064.56;;;17.31;100.00
23733;BME280;12047;53.450;-2.286;2023-02-19T17:02:59;102054.34;;;17.17;100.00
23733;BME280;12047;53.450;-2.286;2023-02-19T17:13:34;102057.88;;;16.80;100.00
23733;BME280;12047;53.450;-2.286;2023-02-19T17:24:17;102049.16;;;17.33;100.00
23733;BME280;12047;53.450;-2.286;2023-02-19T17:29:36;102066.94;;;17.07;100.00
23733;BME280;12047;53.450;-2.286;2023-02-19T17:41:06;102082.44;;;16.47;100.00
23733;BME280;12047;53.450;-2.286;2023-02-19T17:46:55;102062.72;;;16.38;100.00
23733;BME280;12047;53.450;-2.286;2023-02-19T17:56:58;102053.75;;;16.29;100.00
23733;BME280;12047;53.450;-2.286;2023-02-19T18:30:57;102081.59;;;16.17;100.00
23733;BME280;12047;53.450;-2.286;2023-02-19T18:36:23;102064.13;;;16.52;100.00
23733;BME280;12047;53.450;-2.286;2023-02-19T18:41:23;102063.53;;;15.61;100.00
23733;BME280;12047;53.450;-2.286;2023-02-19T18:46:24;102063.13;;;15.66;100.00
23733;BME280;12047;53.450;-2.286;2023-02-19T18:51:24;102062.81;;;15.50;100.00
23733;BME280;12047;53.450;-2.286;2023-02-19T18:56:25;102068.66;;;16.03;100.00
23733;BME280;12047;53.450;-2.286;2023-02-19T19:01:28;102066.97;;;15.83;100.00
23733;BME280;12047;53.450;-2.286;2023-02-19T19:06:29;102069.81;;;15.11;100.00
23733;BME280;12047;53.450;-2.286;2023-02-19T19:11:30;102063.50;;;15.02;100.00
23733;BME280;12047;53.450;-2.286;2023-02-19T19:16:30;102077.22;;;14.97;100.00
23733;BME280;12047;53.450;-2.286;2023-02-19T19:21:31;102076.25;;;15.29;100.00
23733;BME280;12047;53.450;-2.286;2023-02-19T19:26:33;102080.22;;;15.44;100.00
23733;BME280;12047;53.450;-2.286;2023-02-19T19:31:35;102074.25;;;15.21;100.00
23733;BME280;12047;53.450;-2.286;2023-02-19T19:36:36;102073.56;;;14.68;100.00
23733;BME280;12047;53.450;-2.286;2023-02-19T19:41:36;102072.06;;;15.06;100.00
23733;BME280;12047;53.450;-2.286;2023-02-19T19:46:44;102082.69;;;14.96;100.00
23733;BME280;12047;53.450;-2.286;2023-02-19T19:51:45;102086.78;;;15.30;100.00
23733;BME280;12047;53.450;-2.286;2023-02-19T20:02:43;102087.28;;;14.43;100.00
23733;BME280;12047;53.450;-2.286;2023-02-19T20:08:12;102096.44;;;14.91;100.00
23733;BME280;12047;53.450;-2.286;2023-02-19T20:13:44;102088.34;;;14.40;100.00
23733;BME280;12047;53.450;-2.286;2023-02-19T20:19:04;102090.41;;;14.16;100.00
